Time;durP1;ratioP1;P1;durP2;ratioP2;P2;SDS_P1;SDS_P2;PMS_P1;PMS_P2;Temp;Humidity;BMP_temperature;BMP_pressure;BME280_temperature;BME280_humidity;BME280_pressure;Samples;Min_cycle;Max_cycle;Signal;HPM_P1;HPM_P2
2022/06/20 00:01:45;;;;;;;10.40;2.87;;;-40.00;99.90;;;;;;5139024;27;20246;-75
2022/06/20 00:04:15;;;;;;;8.17;2.30;;;-40.00;99.90;;;;;;5138962;27;20564;-74
2022/06/20 00:06:41;;;;;;;4.37;2.50;;;-40.00;99.90;;;;;;5139076;27;20177;-74
2022/06/20 00:09:07;;;;;;;2.97;1.93;;;-40.00;99.90;;;;;;5139134;27;20468;-73
2022/06/20 00:11:40;;;;;;;7.47;2.80;;;-40.00;99.90;;;;;;5138955;27;20471;-75
2022/06/20 00:14:10;;;;;;;8.57;2.50;;;-40.00;99.90;;;;;;5138998;27;20165;-74
2022/06/20 00:16:35;;;;;;;6.43;3.47;;;-40.00;99.90;;;;;;5138948;27;20162;-75
2022/06/20 00:19:02;;;;;;;4.63;2.57;;;-40.00;99.90;;;;;;5137661;27;20238;-74
2022/06/20 00:21:29;;;;;;;7.07;2.23;;;-40.00;99.90;;;;;;5138858;27;20208;-75
2022/06/20 00:23:54;;;;;;;6.50;2.83;;;-40.00;99.90;;;;;;5138698;27;20258;-74
2022/06/20 00:26:20;;;;;;;6.53;2.40;;;-40.00;99.90;;;;;;5138929;27;20282;-72
2022/06/20 00:28:46;;;;;;;5.73;2.93;;;-40.00;99.90;;;;;;5138606;27;20158;-74
2022/06/20 00:31:13;;;;;;;7.83;2.83;;;-40.00;99.90;;;;;;5138612;27;20216;-74
2022/06/20 00:33:38;;;;;;;6.33;2.33;;;-40.00;99.90;;;;;;5138469;27;20202;-74
2022/06/20 00:36:05;;;;;;;7.13;2.97;;;-40.00;99.90;;;;;;5138659;27;20173;-75
2022/06/20 00:38:31;;;;;;;6.03;2.60;;;-40.00;99.90;;;;;;5138556;27;20184;-73
2022/06/20 00:41:05;;;;;;;8.40;3.53;;;-40.00;99.90;;;;;;5138516;27;20181;-70
2022/06/20 00:43:46;;;;;;;10.17;2.80;;;-40.00;99.90;;;;;;5137307;27;20181;-74
2022/06/20 00:46:20;;;;;;;7.03;2.33;;;-40.00;99.90;;;;;;5138367;27;20176;-69
2022/06/20 00:48:52;;;;;;;9.77;3.17;;;-40.00;99.90;;;;;;5136986;27;20534;-74
2022/06/20 00:51:32;;;;;;;9.53;2.63;;;-40.00;99.90;;;;;;5138190;27;20162;-71
2022/06/20 00:54:22;;;;;;;9.43;2.67;;;-40.00;99.90;;;;;;5138135;27;20170;-74
2022/06/20 00:56:54;;;;;;;8.10;2.47;;;-40.00;99.90;;;;;;5137722;27;20268;-74
2022/06/20 00:59:26;;;;;;;10.67;3.23;;;-40.00;99.90;;;;;;5138119;27;20212;-74
2022/06/20 01:01:52;;;;;;;8.37;2.93;;;-40.00;99.90;;;;;;5137842;27;20519;-75
2022/06/20 01:04:29;;;;;;;7.27;2.93;;;-40.00;99.90;;;;;;5137833;27;20177;-68
2022/06/20 01:06:57;;;;;;;5.20;2.47;;;-40.00;99.90;;;;;;5138137;27;20166;-72
2022/06/20 01:09:30;;;;;;;9.87;2.87;;;-40.00;99.90;;;;;;5137790;27;20157;-74
2022/06/20 01:12:00;;;;;;;9.57;2.10;;;-40.00;99.90;;;;;;5137910;27;20253;-71
2022/06/20 01:14:37;;;;;;;6.37;2.33;;;-40.00;99.90;;;;;;5137777;27;20158;-75
2022/06/20 01:17:23;;;;;;;9.20;2.50;;;-40.00;99.90;;;;;;5136439;27;20518;-75
2022/06/20 01:20:04;;;;;;;11.00;2.43;;;-40.00;99.90;;;;;;5137669;27;20165;-74
2022/06/20 01:22:45;;;;;;;7.97;2.30;;;-40.00;99.90;;;;;;5136803;27;20495;-76
2022/06/20 01:25:19;;;;;;;10.17;2.60;;;-40.00;99.90;;;;;;5137525;27;20240;-76
2022/06/20 01:27:48;;;;;;;5.07;2.57;;;-40.00;99.90;;;;;;5137690;27;20169;-73
2022/06/20 01:30:14;;;;;;;8.97;2.83;;;-40.00;99.90;;;;;;5136289;27;20169;-75
2022/06/20 01:32:41;;;;;;;7.23;2.53;;;-40.00;99.90;;;;;;5137311;27;20157;-74
2022/06/20 01:35:11;;;;;;;4.83;2.50;;;-40.00;99.90;;;;;;5137276;27;20258;-76
2022/06/20 01:37:41;;;;;;;9.60;2.63;;;-40.00;99.90;;;;;;5137205;27;20181;-74
2022/06/20 01:40:14;;;;;;;9.77;2.73;;;-40.00;99.90;;;;;;5137155;27;20162;-75
2022/06/20 01:42:42;;;;;;;7.97;2.70;;;-40.00;99.90;;;;;;5137411;27;20210;-73
2022/06/20 01:48:17;;;;;;;10.13;2.90;;;-40.00;99.90;;;;;;5137431;27;20200;-72
2022/06/20 01:50:45;;;;;;;12.57;3.63;;;-40.00;99.90;;;;;;5137100;27;20218;-75
2022/06/20 01:53:14;;;;;;;8.73;2.50;;;-40.00;99.90;;;;;;5136934;27;20243;-74
2022/06/20 01:55:43;;;;;;;16.70;4.60;;;-40.00;99.90;;;;;;5136926;27;20502;-75
2022/06/20 01:58:30;;;;;;;8.07;2.63;;;-40.00;99.90;;;;;;5137029;27;20169;-75
2022/06/20 02:00:59;;;;;;;6.13;3.07;;;-40.00;99.90;;;;;;5136525;27;20616;-73
2022/06/20 02:03:25;;;;;;;8.73;3.20;;;-40.00;99.90;;;;;;5136740;27;20222;-72
2022/06/20 02:05:55;;;;;;;8.30;3.23;;;-40.00;99.90;;;;;;5136661;27;20197;-73
2022/06/20 02:08:22;;;;;;;14.87;3.90;;;-40.00;99.90;;;;;;5136876;27;20234;-75
2022/06/20 02:10:54;;;;;;;7.07;2.77;;;-40.00;99.90;;;;;;5136766;27;20226;-73
2022/06/20 02:13:22;;;;;;;7.50;3.00;;;-40.00;99.90;;;;;;5136848;27;20260;-75
2022/06/20 02:15:53;;;;;;;10.37;3.30;;;-40.00;99.90;;;;;;5136547;27;20169;-74
2022/06/20 02:18:20;;;;;;;8.67;2.97;;;-40.00;99.90;;;;;;5136905;27;20222;-74
2022/06/20 02:20:50;;;;;;;16.07;3.43;;;-40.00;99.90;;;;;;5136492;27;20192;-73
2022/06/20 02:23:22;;;;;;;6.53;2.37;;;-40.00;99.90;;;;;;5136732;27;20512;-75
2022/06/20 02:25:52;;;;;;;8.97;2.63;;;-40.00;99.90;;;;;;5136723;27;20166;-73
2022/06/20 02:28:27;;;;;;;10.60;3.53;;;-40.00;99.90;;;;;;5136789;27;20616;-75
2022/06/20 02:30:53;;;;;;;5.77;2.43;;;-40.00;99.90;;;;;;5136556;27;20474;-73
2022/06/20 02:33:25;;;;;;;12.20;4.07;;;-40.00;99.90;;;;;;5135585;28;20250;-75
2022/06/20 02:35:53;;;;;;;8.47;2.63;;;-40.00;99.90;;;;;;5136508;27;20370;-74
2022/06/20 02:38:21;;;;;;;15.03;3.17;;;-40.00;99.90;;;;;;5136780;27;20191;-72
2022/06/20 02:40:52;;;;;;;5.70;2.73;;;-40.00;99.90;;;;;;5136540;27;20230;-74
2022/06/20 02:43:36;;;;;;;8.00;2.40;;;-40.00;99.90;;;;;;5136379;27;20186;-75
2022/06/20 02:46:07;;;;;;;7.60;2.93;;;-40.00;99.90;;;;;;5136484;27;20205;-68
2022/06/20 02:48:34;;;;;;;9.23;2.33;;;-40.00;99.90;;;;;;5136566;27;20185;-76
2022/06/20 02:51:06;;;;;;;12.43;3.70;;;-40.00;99.90;;;;;;5136430;27;20170;-74
2022/06/20 02:53:38;;;;;;;9.93;2.97;;;-40.00;99.90;;;;;;5136606;27;20612;-73
2022/06/20 02:56:07;;;;;;;11.50;3.47;;;-40.00;99.90;;;;;;5136561;27;20174;-74
2022/06/20 02:58:35;;;;;;;12.13;3.53;;;-40.00;99.90;;;;;;5136313;27;20215;-73
2022/06/20 03:01:12;;;;;;;9.90;2.80;;;-40.00;99.90;;;;;;5136185;27;20185;-75
2022/06/20 03:03:43;;;;;;;8.53;2.30;;;-40.00;99.90;;;;;;5135419;28;20170;-71
2022/06/20 03:06:15;;;;;;;8.67;2.90;;;-40.00;99.90;;;;;;5137682;27;20189;-75
2022/06/20 03:08:41;;;;;;;3.53;1.97;;;-40.00;99.90;;;;;;5140343;27;20173;-67
2022/06/20 03:11:09;;;;;;;9.87;2.40;;;-40.00;99.90;;;;;;5139179;27;20574;-69
2022/06/20 03:13:38;;;;;;;6.27;2.93;;;-40.00;99.90;;;;;;5140190;27;20171;-67
2022/06/20 03:16:06;;;;;;;6.50;2.63;;;-40.00;99.90;;;;;;5140267;27;20161;-67
2022/06/20 03:18:38;;;;;;;3.40;2.27;;;-40.00;99.90;;;;;;5140276;27;20204;-74
2022/06/20 03:21:05;;;;;;;7.03;2.93;;;-40.00;99.90;;;;;;5139980;27;20550;-68
2022/06/20 03:23:32;;;;;;;6.10;2.07;;;-40.00;99.90;;;;;;5139024;27;20494;-67
2022/06/20 03:26:02;;;;;;;5.83;2.50;;;-40.00;99.90;;;;;;5139931;27;20616;-66
2022/06/20 03:28:30;;;;;;;7.60;2.20;;;-40.00;99.90;;;;;;5139837;27;20161;-74
2022/06/20 03:30:58;;;;;;;9.50;3.13;;;-40.00;99.90;;;;;;5139730;27;20890;-68
2022/06/20 03:33:24;;;;;;;6.93;2.70;;;-40.00;99.90;;;;;;5139841;27;20197;-71
2022/06/20 03:35:58;;;;;;;5.40;2.90;;;-40.00;99.90;;;;;;5138764;27;20595;-69
2022/06/20 03:38:25;;;;;;;11.30;3.17;;;-40.00;99.90;;;;;;5139653;27;20578;-72
2022/06/20 03:40:51;;;;;;;9.90;2.70;;;-40.00;99.90;;;;;;5138758;27;20727;-73
2022/06/20 03:43:23;;;;;;;8.97;2.77;;;-40.00;99.90;;;;;;5139338;27;20165;-73
2022/06/20 03:45:57;;;;;;;8.03;2.23;;;-40.00;99.90;;;;;;5139667;27;20196;-73
2022/06/20 03:48:30;;;;;;;6.13;2.00;;;-40.00;99.90;;;;;;5139518;27;20174;-73
2022/06/20 03:51:04;;;;;;;7.93;2.17;;;-40.00;99.90;;;;;;5139503;27;20176;-70
2022/06/20 03:53:32;;;;;;;5.67;2.77;;;-40.00;99.90;;;;;;5139338;27;20197;-72
2022/06/20 03:56:11;;;;;;;6.90;2.33;;;-40.00;99.90;;;;;;5139270;27;20165;-68
2022/06/20 03:59:14;;;;;;;6.07;1.83;;;-40.00;99.90;;;;;;5138249;27;20173;-74
2022/06/20 04:01:49;;;;;;;4.17;1.40;;;-40.00;99.90;;;;;;5126425;27;20517;-70
2022/06/20 04:04:29;;;;;;;5.57;3.03;;;-40.00;99.90;;;;;;5139309;27;20196;-75
2022/06/20 04:07:01;;;;;;;3.20;1.83;;;-40.00;99.90;;;;;;5139204;27;20178;-73
2022/06/20 04:12:23;;;;;;;7.40;2.60;;;-40.00;99.90;;;;;;5138797;27;20222;-68
2022/06/20 04:14:56;;;;;;;9.03;2.50;;;-40.00;99.90;;;;;;5139202;27;20169;-68
2022/06/20 04:20:27;;;;;;;6.73;2.67;;;-40.00;99.90;;;;;;5139017;27;20184;-74
2022/06/20 04:22:55;;;;;;;6.97;2.80;;;-40.00;99.90;;;;;;5138922;27;20173;-73
2022/06/20 04:25:34;;;;;;;4.77;1.93;;;-40.00;99.90;;;;;;5137589;27;20173;-73
2022/06/20 04:28:21;;;;;;;7.97;2.00;;;-40.00;99.90;;;;;;5138900;27;20169;-72
2022/06/20 04:30:57;;;;;;;5.67;2.10;;;-40.00;99.90;;;;;;5138717;27;20476;-67
2022/06/20 04:34:03;;;;;;;8.40;2.17;;;-40.00;99.90;;;;;;5138552;27;20169;-69
2022/06/20 04:36:50;;;;;;;5.67;2.40;;;-40.00;99.90;;;;;;5138499;27;20241;-74
2022/06/20 04:39:25;;;;;;;7.50;2.90;;;-40.00;99.90;;;;;;5138051;27;20577;-74
2022/06/20 04:41:58;;;;;;;13.30;3.10;;;-40.00;99.90;;;;;;5138555;27;20662;-76
2022/06/20 04:44:49;;;;;;;4.60;1.93;;;-40.00;99.90;;;;;;5138502;27;20169;-75
2022/06/20 04:47:36;;;;;;;10.57;2.53;;;-40.00;99.90;;;;;;5138184;27;20177;-76
2022/06/20 04:50:03;;;;;;;4.97;2.83;;;-40.00;99.90;;;;;;5138446;27;20184;-74
2022/06/20 04:52:30;;;;;;;5.83;2.10;;;-40.00;99.90;;;;;;5138192;27;20189;-73
2022/06/20 04:54:57;;;;;;;6.73;2.33;;;-40.00;99.90;;;;;;5138054;27;20248;-69
2022/06/20 04:57:26;;;;;;;4.90;2.40;;;-40.00;99.90;;;;;;5138174;27;20176;-76
2022/06/20 04:59:56;;;;;;;3.53;1.83;;;-40.00;99.90;;;;;;5138035;27;20192;-70
2022/06/20 05:02:24;;;;;;;6.97;2.50;;;-40.00;99.90;;;;;;5138054;27;20472;-69
2022/06/20 05:04:51;;;;;;;5.13;1.97;;;-40.00;99.90;;;;;;5137981;27;20162;-73
2022/06/20 05:07:31;;;;;;;10.37;2.73;;;-40.00;99.90;;;;;;5136981;27;20181;-75
2022/06/20 05:10:20;;;;;;;6.30;2.73;;;-40.00;99.90;;;;;;5137580;27;20165;-76
2022/06/20 05:12:55;;;;;;;7.10;2.33;;;-40.00;99.90;;;;;;5137971;27;20192;-74
2022/06/20 05:15:44;;;;;;;5.87;2.73;;;-40.00;99.90;;;;;;5137920;27;20168;-74
2022/06/20 05:18:12;;;;;;;8.13;3.30;;;-40.00;99.90;;;;;;5137851;27;20166;-74
2022/06/20 05:20:40;;;;;;;3.60;2.63;;;-40.00;99.90;;;;;;5137552;27;20193;-72
2022/06/20 05:23:13;;;;;;;6.07;2.10;;;-40.00;99.90;;;;;;5137387;27;20512;-74
2022/06/20 05:25:41;;;;;;;8.10;3.40;;;-40.00;99.90;;;;;;5137652;27;20169;-68
2022/06/20 05:28:19;;;;;;;6.30;2.50;;;-40.00;99.90;;;;;;5136228;27;20201;-73
2022/06/20 05:30:46;;;;;;;6.80;2.47;;;-40.00;99.90;;;;;;5137568;27;20173;-69
2022/06/20 05:33:24;;;;;;;9.67;3.10;;;-40.00;99.90;;;;;;5137565;27;20588;-74
2022/06/20 05:36:22;;;;;;;7.90;3.00;;;-40.00;99.90;;;;;;5137505;27;20204;-73
2022/06/20 05:38:59;;;;;;;6.87;2.93;;;-40.00;99.90;;;;;;5136800;27;20200;-74
2022/06/20 05:41:26;;;;;;;7.07;3.27;;;-40.00;99.90;;;;;;5137188;27;20220;-77
2022/06/20 05:43:52;;;;;;;3.77;2.37;;;-40.00;99.90;;;;;;5137233;27;20556;-75
2022/06/20 05:46:36;;;;;;;7.30;3.10;;;-40.00;99.90;;;;;;5137285;27;20217;-71
2022/06/20 05:49:06;;;;;;;14.20;3.20;;;-40.00;99.90;;;;;;5137214;27;20173;-72
2022/06/20 05:51:36;;;;;;;10.03;2.80;;;-40.00;99.90;;;;;;5137108;27;20169;-73
2022/06/20 05:54:10;;;;;;;7.83;2.80;;;-40.00;99.90;;;;;;5136904;27;20180;-75
2022/06/20 05:56:42;;;;;;;4.23;2.40;;;-40.00;99.90;;;;;;5137075;27;20177;-73
2022/06/20 05:59:26;;;;;;;6.23;2.80;;;-40.00;99.90;;;;;;5137046;27;20169;-75
2022/06/20 06:02:23;;;;;;;8.73;2.27;;;-40.00;99.90;;;;;;5137221;27;20496;-69
2022/06/20 06:04:58;;;;;;;5.57;2.77;;;-40.00;99.90;;;;;;5127470;27;20192;-70
2022/06/20 06:07:32;;;;;;;4.70;2.60;;;-40.00;99.90;;;;;;5136631;27;20506;-69
2022/06/20 06:10:26;;;;;;;9.00;2.93;;;-40.00;99.90;;;;;;5136864;27;20165;-71
2022/06/20 06:13:12;;;;;;;11.77;4.30;;;-40.00;99.90;;;;;;5136998;27;20165;-72
2022/06/20 06:15:41;;;;;;;9.43;4.13;;;-40.00;99.90;;;;;;5136752;27;20196;-72
2022/06/20 06:18:13;;;;;;;6.73;3.17;;;-40.00;99.90;;;;;;5136056;27;20218;-73
2022/06/20 06:20:46;;;;;;;11.43;3.80;;;-40.00;99.90;;;;;;5134949;27;20208;-74
2022/06/20 06:23:13;;;;;;;9.73;2.77;;;-40.00;99.90;;;;;;5135704;27;20214;-72
2022/06/20 06:25:43;;;;;;;8.90;2.40;;;-40.00;99.90;;;;;;5136754;27;20164;-77
2022/06/20 06:28:16;;;;;;;6.30;2.60;;;-40.00;99.90;;;;;;5134361;28;20179;-74
2022/06/20 06:30:48;;;;;;;7.93;3.03;;;-40.00;99.90;;;;;;5132048;28;20588;-73
2022/06/20 06:33:28;;;;;;;11.10;2.93;;;-40.00;99.90;;;;;;5135546;27;20173;-73
2022/06/20 06:36:09;;;;;;;10.80;3.07;;;-40.00;99.90;;;;;;5135033;27;20184;-76
2022/06/20 06:38:49;;;;;;;2.90;1.93;;;-40.00;99.90;;;;;;5134045;28;20493;-73
2022/06/20 06:41:36;;;;;;;7.13;3.40;;;-40.00;99.90;;;;;;5132036;27;20743;-72
2022/06/20 06:44:13;;;;;;;9.83;2.40;;;-40.00;99.90;;;;;;5136009;27;20196;-70
2022/06/20 06:46:42;;;;;;;4.90;2.83;;;-40.00;99.90;;;;;;5138646;27;20161;-70
2022/06/20 06:49:33;;;;;;;5.97;3.63;;;-40.00;99.90;;;;;;5139030;27;20245;-70
2022/06/20 06:52:07;;;;;;;6.43;2.70;;;-40.00;99.90;;;;;;5126296;27;20638;-69
2022/06/20 06:54:42;;;;;;;7.93;3.27;;;-40.00;99.90;;;;;;5119076;28;20248;-71
2022/06/20 06:57:19;;;;;;;6.33;2.27;;;-40.00;99.90;;;;;;5119736;28;20596;-71
2022/06/20 07:00:08;;;;;;;13.37;4.67;;;-40.00;99.90;;;;;;5119636;28;20579;-73
2022/06/20 07:02:43;;;;;;;8.23;3.27;;;-40.00;99.90;;;;;;5118933;28;20206;-73
2022/06/20 07:05:19;;;;;;;8.07;2.47;;;-40.00;99.90;;;;;;5119513;28;20173;-73
2022/06/20 07:07:49;;;;;;;6.00;2.50;;;-40.00;99.90;;;;;;5119711;27;20230;-71
2022/06/20 07:10:22;;;;;;;7.30;3.30;;;-40.00;99.90;;;;;;5119170;28;20174;-70
2022/06/20 07:12:51;;;;;;;5.57;3.00;;;-40.00;99.90;;;;;;5119297;28;20158;-71
2022/06/20 07:15:23;;;;;;;7.17;3.53;;;-40.00;99.90;;;;;;5119571;28;20190;-72
2022/06/20 07:17:54;;;;;;;12.30;3.10;;;-40.00;99.90;;;;;;5119291;28;20189;-71
2022/06/20 07:20:24;;;;;;;5.83;2.53;;;-40.00;99.90;;;;;;5118809;28;20196;-71
2022/06/20 07:22:50;;;;;;;8.70;3.27;;;-40.00;99.90;;;;;;5117917;28;20170;-72
2022/06/20 07:25:24;;;;;;;7.13;2.80;;;-40.00;99.90;;;;;;5119276;28;20165;-71
2022/06/20 07:28:05;;;;;;;6.27;2.37;;;-40.00;99.90;;;;;;5119200;28;20162;-71
2022/06/20 07:30:37;;;;;;;10.93;3.87;;;-40.00;99.90;;;;;;5118882;28;20172;-71
2022/06/20 07:33:31;;;;;;;6.00;3.13;;;-40.00;99.90;;;;;;5118847;28;20197;-70
2022/06/20 07:36:01;;;;;;;7.87;4.00;;;-40.00;99.90;;;;;;5103301;28;20205;-71
2022/06/20 07:38:39;;;;;;;4.63;2.43;;;-40.00;99.90;;;;;;5119104;28;20246;-71
2022/06/20 07:41:13;;;;;;;7.47;2.53;;;-40.00;99.90;;;;;;5118464;28;20194;-71
2022/06/20 07:44:01;;;;;;;8.93;2.73;;;-40.00;99.90;;;;;;5118899;28;20169;-71
2022/06/20 07:46:51;;;;;;;3.50;2.37;;;-40.00;99.90;;;;;;5118898;28;20166;-71
2022/06/20 07:49:35;;;;;;;6.27;2.30;;;-40.00;98.90;;;;;;5118049;28;20265;-71
2022/06/20 07:52:12;;;;;;;8.10;2.40;;;-40.00;97.40;;;;;;5117639;28;20197;-71
2022/06/20 07:54:47;;;;;;;6.50;2.40;;;-40.00;97.50;;;;;;5118878;28;20166;-71
2022/06/20 07:57:26;;;;;;;7.63;2.03;;;-40.00;96.50;;;;;;5118692;28;20162;-72
2022/06/20 08:00:09;;;;;;;4.57;2.47;;;-40.00;97.90;;;;;;5118745;28;20178;-71
2022/06/20 08:02:49;;;;;;;4.43;2.87;;;-40.00;96.80;;;;;;5117911;28;20554;-70
2022/06/20 08:05:24;;;;;;;5.40;1.87;;;-40.00;95.80;;;;;;5118577;28;20178;-71
2022/06/20 08:08:24;;;;;;;11.23;2.20;;;-40.00;93.80;;;;;;5117487;28;20252;-72
2022/06/20 08:11:39;;;;;;;3.23;1.83;;;-40.00;95.10;;;;;;5114419;28;20644;-74
2022/06/20 08:14:03;;;;;;;4.27;2.00;;;-40.00;93.50;;;;;;5118276;28;20588;-73
2022/06/20 08:16:31;;;;;;;5.30;2.10;;;-40.00;94.40;;;;;;5136214;27;20174;-74
2022/06/20 08:18:59;;;;;;;3.20;2.30;;;-40.00;94.30;;;;;;5126289;27;20184;-73
2022/06/20 08:21:49;;;;;;;2.67;2.00;;;-40.00;94.50;;;;;;5128162;27;20276;-73
2022/06/20 08:24:21;;;;;;;6.93;2.77;;;-40.00;94.20;;;;;;5117775;28;20181;-73
2022/06/20 08:27:02;;;;;;;9.50;2.67;;;-40.00;92.60;;;;;;5118283;28;20182;-72
2022/06/20 08:29:55;;;;;;;3.03;2.10;;;-40.00;91.30;;;;;;5118176;28;20245;-69
2022/06/20 08:32:35;;;;;;;4.27;1.90;;;-40.00;90.80;;;;;;5116912;28;20234;-70
2022/06/20 08:35:14;;;;;;;7.73;3.00;;;-40.00;90.20;;;;;;5118133;28;20429;-71
2022/06/20 08:37:55;;;;;;;4.90;1.97;;;-40.00;91.10;;;;;;5117732;28;20213;-70
2022/06/20 08:40:33;;;;;;;2.53;1.77;;;-40.00;89.90;;;;;;5117071;28;20180;-70
2022/06/20 08:43:24;;;;;;;2.90;1.50;;;-40.00;86.90;;;;;;5117758;28;20170;-70
2022/06/20 08:46:14;;;;;;;8.30;3.13;;;-40.00;86.70;;;;;;5117654;28;20464;-74
2022/06/20 08:48:52;;;;;;;3.30;1.80;;;-40.00;84.70;;;;;;5116559;28;20255;-71
2022/06/20 08:52:07;;;;;;;4.53;1.83;;;-40.00;86.70;;;;;;5117636;28;20643;-74
2022/06/20 08:55:06;;;;;;;3.70;2.27;;;-40.00;83.50;;;;;;5135188;27;20600;-70
2022/06/20 08:57:54;;;;;;;2.97;1.57;;;-40.00;84.20;;;;;;5138146;27;20246;-73
2022/06/20 09:00:28;;;;;;;5.57;2.53;;;-40.00;86.10;;;;;;5137502;27;20174;-72
2022/06/20 09:03:12;;;;;;;6.03;2.53;;;-40.00;86.30;;;;;;5121445;27;20546;-73
2022/06/20 09:06:04;;;;;;;5.93;1.83;;;-40.00;86.00;;;;;;5117098;28;20529;-71
2022/06/20 09:08:49;;;;;;;4.60;1.80;;;-40.00;82.80;;;;;;5115999;28;20344;-70
2022/06/20 09:11:53;;;;;;;3.87;1.77;;;-40.00;83.30;;;;;;5116668;28;20206;-70
2022/06/20 09:14:37;;;;;;;3.27;1.60;;;-40.00;80.50;;;;;;5114885;28;20178;-73
2022/06/20 09:17:11;;;;;;;4.63;2.10;;;-40.00;83.20;;;;;;5116889;28;20170;-72
2022/06/20 09:20:25;;;;;;;4.43;2.20;;;-40.00;82.00;;;;;;5115835;28;20541;-72
2022/06/20 09:23:12;;;;;;;7.17;2.73;;;-40.00;86.60;;;;;;5107528;28;20196;-69
2022/06/20 09:25:50;;;;;;;5.40;1.70;;;-40.00;81.90;;;;;;5117028;28;20253;-70
2022/06/20 09:28:36;;;;;;;5.23;2.77;;;-40.00;83.60;;;;;;5115739;28;20177;-72
2022/06/20 09:31:30;;;;;;;5.53;2.97;;;-40.00;85.50;;;;;;5116481;28;20162;-73
2022/06/20 09:34:19;;;;;;;3.20;2.17;;;-40.00;85.10;;;;;;5116445;28;20209;-70
2022/06/20 09:37:00;;;;;;;3.10;1.70;;;-40.00;83.00;;;;;;5115602;28;20178;-74
2022/06/20 09:39:55;;;;;;;2.83;2.20;;;-40.00;81.40;;;;;;5118184;27;20188;-73
2022/06/20 09:42:45;;;;;;;5.57;2.57;;;-40.00;83.30;;;;;;5121754;27;20300;-69
2022/06/20 09:45:14;;;;;;;3.57;2.30;;;-40.00;79.50;;;;;;5132847;27;20184;-70
2022/06/20 09:47:46;;;;;;;2.17;1.47;;;-40.00;83.30;;;;;;5136095;27;20506;-70
2022/06/20 09:50:12;;;;;;;4.90;1.73;;;-40.00;81.00;;;;;;5136825;27;20496;-70
2022/06/20 09:53:06;;;;;;;4.23;2.07;;;-40.00;79.50;;;;;;5136857;27;20487;-70
2022/06/20 09:55:37;;;;;;;5.60;3.03;;;-40.00;81.10;;;;;;5136666;27;20169;-73
2022/06/20 09:58:11;;;;;;;2.10;1.87;;;-40.00;82.10;;;;;;5133403;27;20183;-72
2022/06/20 10:00:45;;;;;;;6.83;2.57;;;-40.00;81.70;;;;;;5115792;28;20186;-74
2022/06/20 10:03:26;;;;;;;6.03;2.07;;;-40.00;83.80;;;;;;5116068;28;20498;-73
2022/06/20 10:05:52;;;;;;;4.27;1.90;;;-40.00;79.80;;;;;;5115748;28;20193;-72
2022/06/20 10:08:45;;;;;;;4.43;2.00;;;-40.00;77.60;;;;;;5116230;28;20166;-72
2022/06/20 10:11:20;;;;;;;4.63;2.07;;;-40.00;75.90;;;;;;5115506;28;20189;-70
2022/06/20 10:14:03;;;;;;;7.10;2.67;;;-40.00;71.80;;;;;;5123519;27;20164;-70
2022/06/20 10:16:57;;;;;;;6.87;1.80;;;-40.00;74.20;;;;;;5136367;27;20177;-69
2022/06/20 10:19:49;;;;;;;7.80;2.10;;;-40.00;74.30;;;;;;5130792;27;20185;-73
2022/06/20 10:22:40;;;;;;;4.83;2.10;;;-40.00;73.90;;;;;;5110182;28;20209;-69
2022/06/20 10:25:16;;;;;;;4.60;1.87;;;-40.00;68.80;;;;;;5115654;28;20525;-70
2022/06/20 10:27:51;;;;;;;4.83;1.97;;;-40.00;69.70;;;;;;5129190;28;20180;-70
2022/06/20 10:30:46;;;;;;;5.47;2.23;;;-40.00;70.80;;;;;;5133690;28;20161;-71
2022/06/20 10:33:50;;;;;;;5.20;2.17;;;-40.00;72.20;;;;;;5132944;28;20176;-70
2022/06/20 10:36:33;;;;;;;2.33;1.83;;;-40.00;73.80;;;;;;5133527;28;20217;-73
2022/06/20 10:39:10;;;;;;;4.60;2.40;;;-40.00;75.10;;;;;;5134072;28;20180;-71
2022/06/20 10:41:54;;;;;;;4.33;1.90;;;-40.00;74.40;;;;;;5133581;28;20491;-72
2022/06/20 10:44:27;;;;;;;5.30;3.47;;;-40.00;74.40;;;;;;5134002;28;20161;-71
2022/06/20 10:47:16;;;;;;;1.77;1.67;;;-40.00;67.90;;;;;;5132675;28;20178;-71
2022/06/20 10:50:03;;;;;;;7.93;1.87;;;-40.00;63.10;;;;;;5136309;27;20480;-71
2022/06/20 10:53:00;;;;;;;6.13;1.60;;;-40.00;62.60;;;;;;5136058;27;20185;-72
2022/06/20 10:55:41;;;;;;;2.57;2.10;;;-40.00;60.20;;;;;;5119082;27;20182;-72
2022/06/20 10:58:25;;;;;;;3.07;2.13;;;-40.00;60.50;;;;;;5115324;28;20219;-71
2022/06/20 11:00:58;;;;;;;6.07;1.93;;;-40.00;67.60;;;;;;5121223;28;20192;-71
2022/06/20 11:04:03;;;;;;;3.77;1.70;;;-40.00;63.70;;;;;;5115896;28;20162;-70
2022/06/20 11:06:49;;;;;;;2.37;1.83;;;-40.00;63.70;;;;;;5072469;28;20179;-73
2022/06/20 11:09:53;;;;;;;3.27;2.87;;;-40.00;59.40;;;;;;5073183;28;20290;-73
2022/06/20 11:12:43;;;;;;;4.33;2.60;;;-40.00;59.90;;;;;;5064018;28;20223;-72
2022/06/20 11:15:37;;;;;;;4.80;2.73;;;-40.00;62.60;;;;;;5112857;28;20803;-72
2022/06/20 11:18:22;;;;;;;3.43;2.00;;;-40.00;60.00;;;;;;5114891;28;20249;-72
2022/06/20 11:21:09;;;;;;;3.07;1.60;;;-40.00;60.50;;;;;;5115195;28;20186;-72
2022/06/20 11:23:43;;;;;;;7.73;2.40;;;-40.00;61.20;;;;;;5115561;28;20514;-71
2022/06/20 11:26:39;;;;;;;3.70;1.93;;;-40.00;61.60;;;;;;5115176;28;20178;-71
2022/06/20 11:29:21;;;;;;;5.23;1.30;;;-40.00;64.70;;;;;;5117091;28;20189;-71
2022/06/20 11:32:25;;;;;;;4.67;2.00;;;-40.00;59.00;;;;;;5119019;28;20166;-71
2022/06/20 11:35:15;;;;;;;2.90;2.40;;;-40.00;59.80;;;;;;5118477;28;20509;-72
2022/06/20 11:37:49;;;;;;;3.63;2.53;;;-40.00;59.00;;;;;;5118973;28;20231;-71
2022/06/20 11:40:43;;;;;;;4.63;2.50;;;-40.00;57.30;;;;;;5118505;28;20188;-71
2022/06/20 11:43:45;;;;;;;7.60;3.43;;;-40.00;56.70;;;;;;5118539;28;20234;-71
2022/06/20 11:46:18;;;;;;;4.33;2.40;;;-40.00;55.60;;;;;;5098974;27;20185;-73
2022/06/20 11:49:18;;;;;;;4.37;2.73;;;-40.00;56.70;;;;;;5127520;27;20181;-71
2022/06/20 11:51:54;;;;;;;5.80;2.90;;;-40.00;56.50;;;;;;5130977;27;20500;-73
2022/06/20 11:54:32;;;;;;;6.73;2.83;;;-40.00;59.10;;;;;;5137751;27;20209;-73
2022/06/20 11:57:20;;;;;;;4.53;3.23;;;-40.00;59.00;;;;;;5118136;28;20254;-72
2022/06/20 12:00:14;;;;;;;4.70;2.13;;;-40.00;60.00;;;;;;5118701;28;20161;-71
2022/06/20 12:03:15;;;;;;;2.90;2.10;;;-40.00;52.90;;;;;;5118168;27;20189;-70
2022/06/20 12:06:04;;;;;;;3.03;2.03;;;-40.00;51.30;;;;;;5118417;28;20170;-71
2022/06/20 12:08:57;;;;;;;2.50;2.00;;;-40.00;49.70;;;;;;5136487;27;20185;-72
2022/06/20 12:12:05;;;;;;;3.47;1.90;;;-40.00;50.70;;;;;;5122110;27;20177;-71
2022/06/20 12:14:45;;;;;;;6.83;3.37;;;-40.00;52.40;;;;;;5107138;28;20197;-71
2022/06/20 12:17:28;;;;;;;7.23;2.87;;;-40.00;51.00;;;;;;5118025;28;20170;-71
2022/06/20 12:23:36;;;;;;;7.63;3.47;;;-40.00;48.50;;;;;;5133355;27;20265;-73
2022/06/20 12:26:21;;;;;;;4.10;3.00;;;-40.00;50.60;;;;;;5116931;28;20174;-73
2022/06/20 12:28:50;;;;;;;6.53;2.23;;;-40.00;50.00;;;;;;5118136;28;20165;-72
2022/06/20 12:31:33;;;;;;;5.90;2.63;;;-40.00;47.90;;;;;;5117735;28;20173;-72
2022/06/20 12:34:21;;;;;;;4.30;2.63;;;-40.00;44.80;;;;;;5117358;28;20167;-72
2022/06/20 12:37:04;;;;;;;3.13;2.90;;;-40.00;43.80;;;;;;5118060;28;20194;-72
2022/06/20 12:39:37;;;;;;;5.27;2.40;;;-40.00;43.60;;;;;;5116447;28;20181;-71
2022/06/20 12:42:24;;;;;;;2.47;1.90;;;-40.00;46.00;;;;;;5117555;28;20196;-71
2022/06/20 12:45:13;;;;;;;6.27;2.13;;;-40.00;50.30;;;;;;5117571;28;20170;-71
2022/06/20 12:47:54;;;;;;;8.03;2.50;;;-40.00;45.30;;;;;;5117600;28;20161;-72
2022/06/20 12:50:43;;;;;;;4.23;2.40;;;-40.00;43.60;;;;;;5117245;28;20174;-74
2022/06/20 12:53:46;;;;;;;1.90;1.80;;;-40.00;42.50;;;;;;5117197;28;20194;-71
2022/06/20 12:56:36;;;;;;;5.97;2.10;;;-40.00;46.10;;;;;;5117482;28;20169;-74
2022/06/20 12:59:34;;;;;;;2.63;2.43;;;-40.00;43.60;;;;;;5123614;27;20585;-73
2022/06/20 13:02:11;;;;;;;7.95;2.33;;;-40.00;45.80;;;;;;5128322;27;20212;-73
2022/06/20 13:04:55;;;;;;;4.97;2.33;;;-40.00;42.10;;;;;;5117148;28;20182;-73
2022/06/20 13:07:36;;;;;;;2.92;2.67;;;-40.00;38.00;;;;;;5116994;28;20234;-74
2022/06/20 13:10:34;;;;;;;4.18;2.38;;;-40.00;41.40;;;;;;5116084;28;20183;-72
2022/06/20 13:13:32;;;;;;;3.58;3.28;;;-40.00;37.50;;;;;;5116273;28;20222;-71
2022/06/20 13:16:09;;;;;;;2.65;1.70;;;-40.00;41.20;;;;;;5117388;28;20172;-72
2022/06/20 13:19:20;;;;;;;4.40;2.58;;;-40.00;41.40;;;;;;5116618;28;20174;-72
2022/06/20 13:21:55;;;;;;;6.05;2.60;;;-40.00;33.10;;;;;;5116529;28;20632;-73
2022/06/20 13:24:48;;;;;;;5.07;1.83;;;-40.00;32.60;;;;;;5116769;28;20182;-73
2022/06/20 13:27:40;;;;;;;4.47;2.83;;;-40.00;31.30;;;;;;5116699;28;20190;-72
2022/06/20 13:30:25;;;;;;;4.72;2.15;;;-40.00;34.20;;;;;;5129378;27;20201;-73
2022/06/20 13:33:09;;;;;;;6.78;2.40;;;-40.00;34.70;;;;;;5125343;27;20260;-72
2022/06/20 13:35:52;;;;;;;4.05;2.50;;;-40.00;29.80;;;;;;5116554;28;20174;-74
2022/06/20 13:38:24;;;;;;;8.18;3.05;;;-40.00;31.10;;;;;;5116410;28;20596;-74
2022/06/20 13:41:14;;;;;;;6.25;3.30;;;-40.00;32.60;;;;;;5128981;27;20192;-74
2022/06/20 13:43:42;;;;;;;5.60;2.90;;;-40.00;32.00;;;;;;5127244;27;20201;-72
2022/06/20 13:46:27;;;;;;;11.25;3.25;;;-40.00;33.90;;;;;;5116673;28;20247;-73